Time;durP1;ratioP1;P1;durP2;ratioP2;P2;SDS_P1;SDS_P2;PMS_P1;PMS_P2;Temp;Humidity;BMP_temperature;BMP_pressure;BME280_temperature;BME280_humidity;BME280_pressure;Samples;Min_cycle;Max_cycle;Signal;HPM_P1;HPM_P2
2022/06/01 00:02:22;;;;;;;10.48;6.97;;;;;;;;;;5051894;28;20385;-64
2022/06/01 00:04:47;;;;;;;7.53;6.80;;;;;;;;;;5047530;28;20025;-63
2022/06/01 00:07:13;;;;;;;7.57;6.90;;;;;;;;;;5047738;28;20045;-65
2022/06/01 00:09:39;;;;;;;7.78;7.18;;;;;;;;;;5055956;28;20041;-65
2022/06/01 00:12:05;;;;;;;7.90;7.20;;;;;;;;;;5059669;28;20037;-64
2022/06/01 00:14:33;;;;;;;8.07;7.40;;;;;;;;;;5047314;28;20030;-65
2022/06/01 00:16:59;;;;;;;8.30;7.55;;;;;;;;;;5049617;28;20036;-64
2022/06/01 00:19:24;;;;;;;9.27;7.50;;;;;;;;;;5055914;28;20036;-64
2022/06/01 00:24:37;;;;;;;8.10;7.28;;;;;;;;;;5048642;28;20021;-64
2022/06/01 00:27:03;;;;;;;7.90;7.07;;;;;;;;;;5047806;28;20192;-64
2022/06/01 00:29:29;;;;;;;9.45;7.07;;;;;;;;;;5055930;28;20041;-65
2022/06/01 00:31:55;;;;;;;8.32;7.10;;;;;;;;;;5048249;28;20035;-64
2022/06/01 00:34:20;;;;;;;7.63;6.93;;;;;;;;;;5053086;28;20092;-64
2022/06/01 00:36:46;;;;;;;7.45;6.75;;;;;;;;;;5057156;28;20029;-64
2022/06/01 00:39:12;;;;;;;8.35;6.90;;;;;;;;;;5047809;28;20037;-64
2022/06/01 00:41:38;;;;;;;13.60;6.88;;;;;;;;;;5056685;28;20029;-64
2022/06/01 00:44:03;;;;;;;7.40;6.70;;;;;;;;;;5057873;28;20111;-64
2022/06/01 00:46:30;;;;;;;11.38;7.13;;;;;;;;;;5051931;28;20083;-62
2022/06/01 00:49:01;;;;;;;8.15;7.45;;;;;;;;;;5050610;28;20484;-64
2022/06/01 00:51:28;;;;;;;8.02;7.25;;;;;;;;;;5043300;28;20101;-64
2022/06/01 00:53:56;;;;;;;8.00;7.20;;;;;;;;;;5039198;28;20043;-64
2022/06/01 00:56:34;;;;;;;8.77;7.03;;;;;;;;;;5041242;28;20488;-64
2022/06/01 00:59:05;;;;;;;7.07;6.57;;;;;;;;;;5048907;28;20048;-63
2022/06/01 01:01:31;;;;;;;7.13;6.53;;;;;;;;;;5032121;28;20041;-64
2022/06/01 01:03:59;;;;;;;7.50;6.80;;;;;;;;;;5046060;28;20612;-64
2022/06/01 01:06:35;;;;;;;7.90;6.97;;;;;;;;;;5041526;28;20051;-64
2022/06/01 01:09:02;;;;;;;7.75;6.70;;;;;;;;;;5047031;28;20033;-64
2022/06/01 01:11:32;;;;;;;7.63;6.80;;;;;;;;;;5036660;28;20504;-64
2022/06/01 01:13:59;;;;;;;8.25;6.80;;;;;;;;;;5040249;28;20041;-63
2022/06/01 01:16:26;;;;;;;7.93;7.10;;;;;;;;;;5040001;28;20045;-64
2022/06/01 01:18:54;;;;;;;7.57;6.80;;;;;;;;;;5045748;28;20060;-64
2022/06/01 01:21:26;;;;;;;7.82;7.07;;;;;;;;;;5036984;28;20048;-64
2022/06/01 01:24:04;;;;;;;7.57;6.95;;;;;;;;;;5032015;28;20392;-64
2022/06/01 01:26:33;;;;;;;8.52;7.07;;;;;;;;;;5040702;28;20053;-64
2022/06/01 01:28:58;;;;;;;7.50;6.90;;;;;;;;;;5040636;28;20068;-64
2022/06/01 01:31:24;;;;;;;8.05;7.35;;;;;;;;;;5036028;28;20685;-64
2022/06/01 01:33:52;;;;;;;7.72;7.03;;;;;;;;;;5047453;28;20041;-64
2022/06/01 01:36:23;;;;;;;7.75;7.05;;;;;;;;;;5050544;28;20117;-65
2022/06/01 01:39:15;;;;;;;8.32;7.57;;;;;;;;;;5055442;28;20056;-64
2022/06/01 01:41:45;;;;;;;8.82;7.20;;;;;;;;;;5049664;28;20040;-65
2022/06/01 01:44:20;;;;;;;7.82;7.10;;;;;;;;;;5052524;28;20491;-64
2022/06/01 01:46:49;;;;;;;8.30;7.50;;;;;;;;;;5046653;28;20112;-64
2022/06/01 01:49:17;;;;;;;9.45;7.35;;;;;;;;;;5052832;28;20033;-64
2022/06/01 01:51:44;;;;;;;7.57;6.88;;;;;;;;;;5051040;28;20071;-64
2022/06/01 01:54:25;;;;;;;7.72;7.03;;;;;;;;;;5052460;28;20033;-64
2022/06/01 01:57:14;;;;;;;8.57;7.35;;;;;;;;;;5047019;28;20044;-64
2022/06/01 02:00:04;;;;;;;12.57;7.07;;;;;;;;;;5051011;28;20440;-64
2022/06/01 02:03:11;;;;;;;8.05;7.35;;;;;;;;;;5052292;28;20094;-62
2022/06/01 02:06:15;;;;;;;7.93;7.32;;;;;;;;;;5035458;28;20057;-64
2022/06/01 02:09:04;;;;;;;8.48;7.72;;;;;;;;;;5056942;28;20037;-64
2022/06/01 02:14:47;;;;;;;8.40;7.68;;;;;;;;;;5050748;28;20818;-64
2022/06/01 02:17:19;;;;;;;8.38;7.50;;;;;;;;;;5048948;28;20116;-64
2022/06/01 02:19:54;;;;;;;7.90;7.20;;;;;;;;;;5048246;28;20135;-64
2022/06/01 02:22:20;;;;;;;8.73;7.45;;;;;;;;;;5043102;28;20052;-65
2022/06/01 02:24:46;;;;;;;8.10;7.28;;;;;;;;;;5041451;28;20033;-64
2022/06/01 02:27:14;;;;;;;6.85;6.30;;;;;;;;;;5042805;28;20037;-62
2022/06/01 02:29:45;;;;;;;7.97;7.22;;;;;;;;;;5045566;28;20037;-64
2022/06/01 02:32:12;;;;;;;8.68;6.88;;;;;;;;;;5039996;28;20135;-64
2022/06/01 02:34:40;;;;;;;8.45;7.40;;;;;;;;;;5041089;28;20496;-65
2022/06/01 02:37:08;;;;;;;7.90;6.72;;;;;;;;;;5044508;28;20637;-64
2022/06/01 02:39:37;;;;;;;7.50;6.90;;;;;;;;;;5042838;28;20037;-64
2022/06/01 02:42:25;;;;;;;7.78;6.97;;;;;;;;;;5045866;28;20032;-64
2022/06/01 02:45:06;;;;;;;7.38;6.60;;;;;;;;;;5043544;28;20037;-64
2022/06/01 02:47:37;;;;;;;8.52;7.00;;;;;;;;;;5040448;28;20057;-64
2022/06/01 02:50:04;;;;;;;7.50;6.80;;;;;;;;;;5040883;28;20731;-64
2022/06/01 02:52:30;;;;;;;7.10;6.57;;;;;;;;;;5044122;28;20037;-64
2022/06/01 02:54:55;;;;;;;7.57;7.03;;;;;;;;;;5042158;28;20037;-64
2022/06/01 02:57:21;;;;;;;8.40;7.50;;;;;;;;;;5044643;28;20043;-64
2022/06/01 02:59:47;;;;;;;8.27;7.57;;;;;;;;;;5045308;28;20107;-63
2022/06/01 03:02:13;;;;;;;8.85;8.05;;;;;;;;;;5043598;28;20108;-64
2022/06/01 03:04:42;;;;;;;8.35;7.68;;;;;;;;;;5043585;28;20040;-63
2022/06/01 03:07:10;;;;;;;9.00;8.20;;;;;;;;;;5044655;28;22551;-64
2022/06/01 03:09:35;;;;;;;8.90;8.07;;;;;;;;;;5041965;28;20033;-64
2022/06/01 03:12:02;;;;;;;10.27;7.85;;;;;;;;;;5044709;28;20040;-62
2022/06/01 03:14:28;;;;;;;8.02;7.35;;;;;;;;;;5043774;28;20115;-62
2022/06/01 03:16:55;;;;;;;8.00;6.93;;;;;;;;;;5042167;28;20083;-62
2022/06/01 03:19:21;;;;;;;8.52;7.82;;;;;;;;;;5043548;28;20037;-62
2022/06/01 03:21:46;;;;;;;9.10;8.13;;;;;;;;;;5046632;28;20039;-61
2022/06/01 03:24:12;;;;;;;9.02;8.13;;;;;;;;;;5041053;28;20104;-62
2022/06/01 03:26:38;;;;;;;9.02;8.23;;;;;;;;;;5043586;28;20062;-62
2022/06/01 03:29:04;;;;;;;8.55;7.78;;;;;;;;;;5045500;28;20051;-61
2022/06/01 03:31:30;;;;;;;9.13;8.18;;;;;;;;;;5043510;28;20127;-61
2022/06/01 03:33:57;;;;;;;9.30;8.50;;;;;;;;;;5040339;28;20034;-62
2022/06/01 03:36:23;;;;;;;9.57;8.75;;;;;;;;;;5045394;28;20123;-62
2022/06/01 03:38:49;;;;;;;10.57;8.25;;;;;;;;;;5043206;28;20115;-62
2022/06/01 03:41:15;;;;;;;9.15;8.35;;;;;;;;;;5045801;28;20120;-61
2022/06/01 03:46:25;;;;;;;10.35;8.23;;;;;;;;;;5047418;28;20416;-62
2022/06/01 03:48:51;;;;;;;9.60;8.55;;;;;;;;;;5046255;28;20040;-62
2022/06/01 03:51:16;;;;;;;9.25;8.35;;;;;;;;;;5048323;28;20112;-62
2022/06/01 03:53:42;;;;;;;9.27;7.55;;;;;;;;;;5047035;28;20029;-63
2022/06/01 03:56:09;;;;;;;8.73;7.90;;;;;;;;;;5047926;28;20079;-62
2022/06/01 03:58:36;;;;;;;8.45;7.70;;;;;;;;;;5044395;28;20573;-62
2022/06/01 04:01:05;;;;;;;8.10;7.35;;;;;;;;;;5047815;28;20068;-62
2022/06/01 04:03:31;;;;;;;8.20;7.38;;;;;;;;;;5050080;28;20036;-62
2022/06/01 04:05:56;;;;;;;11.27;8.05;;;;;;;;;;5049655;28;20094;-62
2022/06/01 04:08:22;;;;;;;8.63;7.97;;;;;;;;;;5044391;28;20499;-61
2022/06/01 04:10:49;;;;;;;8.30;7.60;;;;;;;;;;5049131;28;20033;-63
2022/06/01 04:13:15;;;;;;;8.23;7.43;;;;;;;;;;5048964;28;20114;-62
2022/06/01 04:15:41;;;;;;;7.90;7.20;;;;;;;;;;5043431;28;20507;-62
2022/06/01 04:18:07;;;;;;;7.63;7.03;;;;;;;;;;5044543;28;20033;-63
2022/06/01 04:20:33;;;;;;;8.25;7.55;;;;;;;;;;5045137;28;20075;-62
2022/06/01 04:23:00;;;;;;;7.72;7.13;;;;;;;;;;5048223;28;20056;-63
2022/06/01 04:25:28;;;;;;;7.88;7.13;;;;;;;;;;5044529;28;20025;-62
2022/06/01 04:27:54;;;;;;;8.45;7.13;;;;;;;;;;5047224;28;20043;-61
2022/06/01 04:30:20;;;;;;;7.78;7.07;;;;;;;;;;5043986;28;20436;-63
2022/06/01 04:32:48;;;;;;;7.30;6.80;;;;;;;;;;5038240;28;20045;-63
2022/06/01 04:35:15;;;;;;;7.90;7.20;;;;;;;;;;5043331;28;20093;-62
2022/06/01 04:37:40;;;;;;;7.53;6.78;;;;;;;;;;5047106;28;20029;-62
2022/06/01 04:40:06;;;;;;;7.10;6.55;;;;;;;;;;5047180;28;20039;-62
2022/06/01 04:42:33;;;;;;;7.43;6.72;;;;;;;;;;5040940;28;20174;-62
2022/06/01 04:44:59;;;;;;;11.07;7.20;;;;;;;;;;5045364;28;20032;-61
2022/06/01 04:47:25;;;;;;;9.20;7.32;;;;;;;;;;5047725;28;20068;-61
2022/06/01 04:49:51;;;;;;;7.50;6.90;;;;;;;;;;5041799;28;20092;-62
2022/06/01 04:52:16;;;;;;;7.80;7.10;;;;;;;;;;5046207;28;20037;-63
2022/06/01 04:54:42;;;;;;;8.40;7.55;;;;;;;;;;5045237;28;20041;-62
2022/06/01 04:57:08;;;;;;;9.07;7.07;;;;;;;;;;5044903;28;20033;-62
2022/06/01 04:59:34;;;;;;;7.70;6.88;;;;;;;;;;5051228;28;20041;-62
2022/06/01 05:01:59;;;;;;;7.72;7.07;;;;;;;;;;5048749;28;20044;-62
2022/06/01 05:04:28;;;;;;;7.20;6.60;;;;;;;;;;5043298;28;20103;-62
2022/06/01 05:06:58;;;;;;;7.93;7.13;;;;;;;;;;5045075;28;20033;-61
2022/06/01 05:09:24;;;;;;;7.70;6.95;;;;;;;;;;5046648;28;20040;-62
2022/06/01 05:11:50;;;;;;;7.28;6.70;;;;;;;;;;5045391;28;20059;-62
2022/06/01 05:14:16;;;;;;;7.00;6.45;;;;;;;;;;5043642;28;20110;-62
2022/06/01 05:16:42;;;;;;;6.70;6.20;;;;;;;;;;5042509;28;20036;-62
2022/06/01 05:19:07;;;;;;;6.72;6.22;;;;;;;;;;5043995;28;20447;-60
2022/06/01 05:21:33;;;;;;;6.28;5.78;;;;;;;;;;5044574;28;20025;-62
2022/06/01 05:23:59;;;;;;;6.45;5.95;;;;;;;;;;5044956;28;20036;-62
2022/06/01 05:26:25;;;;;;;6.60;6.10;;;;;;;;;;5043949;28;20099;-61
2022/06/01 05:28:50;;;;;;;6.55;6.03;;;;;;;;;;5046083;28;21214;-62
2022/06/01 05:31:18;;;;;;;6.80;6.30;;;;;;;;;;5045309;28;20798;-61
2022/06/01 05:33:45;;;;;;;10.98;6.43;;;;;;;;;;5045021;28;20040;-62
2022/06/01 05:36:15;;;;;;;8.50;6.18;;;;;;;;;;5060825;22;20127;-68
2022/06/01 05:38:42;;;;;;;6.95;6.28;;;;;;;;;;5046820;28;20033;-67
2022/06/01 05:41:08;;;;;;;12.45;6.40;;;;;;;;;;5047575;28;20039;-67
2022/06/01 05:43:34;;;;;;;6.65;6.13;;;;;;;;;;5046931;28;20147;-68
2022/06/01 05:46:01;;;;;;;6.45;5.95;;;;;;;;;;5016229;28;20041;-68
2022/06/01 05:48:27;;;;;;;7.30;6.55;;;;;;;;;;5014882;28;20147;-68
2022/06/01 05:50:52;;;;;;;6.85;5.97;;;;;;;;;;5020261;28;20496;-68
2022/06/01 05:53:18;;;;;;;6.88;6.15;;;;;;;;;;5017519;28;20056;-67
2022/06/01 05:55:44;;;;;;;6.45;5.68;;;;;;;;;;5021655;28;20026;-68
2022/06/01 05:58:12;;;;;;;6.50;5.93;;;;;;;;;;5019978;28;20045;-67
2022/06/01 06:00:38;;;;;;;6.47;5.57;;;;;;;;;;5023834;28;20441;-68
2022/06/01 06:03:03;;;;;;;6.38;5.88;;;;;;;;;;5022860;28;20069;-68
2022/06/01 06:08:20;;;;;;;10.02;5.47;;;;;;;;;;5018444;28;20127;-68
2022/06/01 06:10:46;;;;;;;6.05;5.43;;;;;;;;;;5016301;28;20477;-68
2022/06/01 06:13:12;;;;;;;5.78;5.35;;;;;;;;;;5015179;28;20068;-67
2022/06/01 06:15:37;;;;;;;5.95;5.45;;;;;;;;;;5014734;28;20392;-68
2022/06/01 06:18:03;;;;;;;6.18;5.20;;;;;;;;;;5020130;28;20033;-67
2022/06/01 06:20:29;;;;;;;5.50;5.10;;;;;;;;;;5021962;28;20033;-67
2022/06/01 06:22:55;;;;;;;5.90;5.40;;;;;;;;;;5014760;28;20042;-68
2022/06/01 06:25:20;;;;;;;5.88;5.38;;;;;;;;;;5022540;28;20073;-68
2022/06/01 06:27:46;;;;;;;5.70;5.13;;;;;;;;;;5021806;28;20436;-68
2022/06/01 06:30:12;;;;;;;5.47;5.03;;;;;;;;;;5017774;28;20115;-68
2022/06/01 06:32:37;;;;;;;5.63;5.13;;;;;;;;;;5024111;28;20066;-68
2022/06/01 06:35:04;;;;;;;5.38;5.03;;;;;;;;;;5007763;28;20392;-67
2022/06/01 06:37:30;;;;;;;5.57;5.18;;;;;;;;;;5017533;28;20071;-67
2022/06/01 06:39:56;;;;;;;5.90;5.30;;;;;;;;;;5016176;28;20030;-67
2022/06/01 06:42:22;;;;;;;6.10;5.50;;;;;;;;;;5020168;28;20509;-67
2022/06/01 06:44:47;;;;;;;6.15;5.45;;;;;;;;;;5013872;28;20307;-67
2022/06/01 06:47:13;;;;;;;5.75;5.30;;;;;;;;;;5021740;28;20121;-67
2022/06/01 06:49:39;;;;;;;6.20;5.40;;;;;;;;;;5017482;28;20128;-67
2022/06/01 06:52:05;;;;;;;6.13;5.60;;;;;;;;;;5013933;28;20061;-67
2022/06/01 06:54:33;;;;;;;6.53;5.43;;;;;;;;;;5013655;28;20085;-67
2022/06/01 06:56:58;;;;;;;6.40;5.40;;;;;;;;;;5019369;28;20037;-67
2022/06/01 06:59:24;;;;;;;5.80;5.40;;;;;;;;;;5020402;28;20511;-67
2022/06/01 07:01:50;;;;;;;5.93;5.43;;;;;;;;;;5022086;28;20065;-68
2022/06/01 07:04:15;;;;;;;7.40;5.43;;;;;;;;;;5014991;28;20048;-68
2022/06/01 07:06:41;;;;;;;5.38;5.00;;;;;;;;;;5008897;28;20032;-68
2022/06/01 07:09:07;;;;;;;6.30;5.70;;;;;;;;;;5019660;28;20029;-68
2022/06/01 07:11:38;;;;;;;6.55;5.68;;;;;;;;;;5023684;28;20411;-67
2022/06/01 07:14:04;;;;;;;8.10;5.55;;;;;;;;;;5011581;28;20049;-67
2022/06/01 07:16:32;;;;;;;5.70;5.20;;;;;;;;;;5021543;28;20041;-68
2022/06/01 07:19:01;;;;;;;6.05;5.47;;;;;;;;;;5020820;28;20400;-68
2022/06/01 07:21:28;;;;;;;6.57;5.60;;;;;;;;;;5014777;28;20034;-68
2022/06/01 07:23:54;;;;;;;5.95;5.55;;;;;;;;;;5017292;28;20394;-68
2022/06/01 07:26:20;;;;;;;7.43;6.47;;;;;;;;;;5023457;28;20092;-67
2022/06/01 07:28:46;;;;;;;6.13;5.65;;;;;;;;;;5024962;28;20037;-68
2022/06/01 07:31:13;;;;;;;7.65;5.55;;;;;;;;;;5019716;28;20083;-68
2022/06/01 07:33:39;;;;;;;6.43;5.82;;;;;;;;;;5020792;28;20033;-67
2022/06/01 07:36:07;;;;;;;6.07;5.53;;;;;;;;;;5018362;28;20388;-67
2022/06/01 07:44:11;;;;;;;6.00;5.40;;;;;;;;;;5013364;28;20084;-67
2022/06/01 07:46:37;;;;;;;7.57;5.72;;;;;;;;;;5023680;28;20128;-67
2022/06/01 07:49:04;;;;;;;6.22;5.70;;;;;;;;;;5019785;28;20042;-66
2022/06/01 07:51:30;;;;;;;6.22;5.60;;;;;;;;;;5019721;28;20563;-66
2022/06/01 07:53:56;;;;;;;6.00;5.38;;;;;;;;;;5019619;28;20091;-67
2022/06/01 07:56:21;;;;;;;6.93;5.40;;;;;;;;;;5018725;28;20037;-66
2022/06/01 07:58:47;;;;;;;5.95;5.47;;;;;;;;;;5018923;28;20067;-67
2022/06/01 08:01:12;;;;;;;7.22;5.00;;;;;;;;;;5016138;28;20184;-67
2022/06/01 08:03:38;;;;;;;5.80;5.40;;;;;;;;;;5021111;28;20038;-66
2022/06/01 08:06:04;;;;;;;6.22;5.60;;;;;;;;;;5019919;28;20527;-66
2022/06/01 08:08:30;;;;;;;5.63;5.22;;;;;;;;;;5022262;28;20029;-66
2022/06/01 08:10:59;;;;;;;5.80;5.40;;;;;;;;;;5012926;28;20510;-66
2022/06/01 08:13:25;;;;;;;5.97;5.50;;;;;;;;;;5013277;28;20489;-66
2022/06/01 08:15:50;;;;;;;5.38;5.00;;;;;;;;;;5020679;28;20038;-66
2022/06/01 08:18:20;;;;;;;5.53;5.20;;;;;;;;;;5022281;28;20037;-68
2022/06/01 08:20:46;;;;;;;5.40;5.00;;;;;;;;;;5019136;28;20029;-67
2022/06/01 08:23:12;;;;;;;7.00;5.18;;;;;;;;;;5022487;28;20119;-68
2022/06/01 08:25:38;;;;;;;5.40;5.00;;;;;;;;;;5018149;28;20053;-67
2022/06/01 08:28:05;;;;;;;5.22;4.70;;;;;;;;;;5017191;28;20042;-68
2022/06/01 08:30:33;;;;;;;5.38;4.97;;;;;;;;;;5020728;28;20037;-67
2022/06/01 08:33:00;;;;;;;5.28;4.78;;;;;;;;;;5018821;28;20385;-67
2022/06/01 08:35:34;;;;;;;4.72;4.30;;;;;;;;;;5010950;28;20045;-67
2022/06/01 08:38:01;;;;;;;5.28;4.88;;;;;;;;;;5018507;28;20135;-67
2022/06/01 08:40:45;;;;;;;5.50;5.05;;;;;;;;;;5022592;28;20038;-67
2022/06/01 08:43:13;;;;;;;4.78;4.47;;;;;;;;;;5012913;28;20076;-67
2022/06/01 08:45:44;;;;;;;4.93;4.63;;;;;;;;;;5019026;28;20030;-66
2022/06/01 08:48:29;;;;;;;5.18;4.80;;;;;;;;;;5023306;28;20037;-67
2022/06/01 08:51:03;;;;;;;4.78;4.47;;;;;;;;;;5016875;28;20045;-67
2022/06/01 08:53:29;;;;;;;5.43;5.03;;;;;;;;;;5020303;28;20076;-67
2022/06/01 08:56:00;;;;;;;8.75;4.75;;;;;;;;;;5026616;28;20076;-67
2022/06/01 08:58:38;;;;;;;5.10;4.70;;;;;;;;;;5019446;28;20041;-67
2022/06/01 09:01:12;;;;;;;6.50;4.68;;;;;;;;;;5021423;28;20069;-67
2022/06/01 09:03:50;;;;;;;5.05;4.65;;;;;;;;;;5015795;28;20037;-67
2022/06/01 09:06:25;;;;;;;6.00;5.35;;;;;;;;;;5019626;28;20300;-67
2022/06/01 09:08:57;;;;;;;5.82;5.32;;;;;;;;;;5021190;28;20095;-67
2022/06/01 09:11:31;;;;;;;5.20;4.80;;;;;;;;;;5024712;28;20037;-66
2022/06/01 09:13:57;;;;;;;5.57;5.18;;;;;;;;;;5014979;28;20032;-66
2022/06/01 09:16:29;;;;;;;6.22;5.40;;;;;;;;;;5017548;28;20026;-67
2022/06/01 09:18:55;;;;;;;6.20;5.80;;;;;;;;;;5027859;28;20104;-67
2022/06/01 09:24:43;;;;;;;6.50;5.90;;;;;;;;;;5019926;28;20025;-66
2022/06/01 09:27:12;;;;;;;6.47;6.00;;;;;;;;;;5024470;28;20057;-66
2022/06/01 09:29:49;;;;;;;6.38;5.78;;;;;;;;;;5017663;28;20038;-67
2022/06/01 09:32:29;;;;;;;6.25;5.85;;;;;;;;;;5016238;28;20045;-66
2022/06/01 09:34:59;;;;;;;5.95;5.43;;;;;;;;;;5025331;28;20033;-67
2022/06/01 09:37:33;;;;;;;5.68;5.18;;;;;;;;;;5021156;28;20128;-67
2022/06/01 09:40:03;;;;;;;5.85;5.35;;;;;;;;;;5026615;28;20038;-67
2022/06/01 09:42:38;;;;;;;6.25;5.68;;;;;;;;;;5017814;28;20431;-67
2022/06/01 09:45:13;;;;;;;5.60;5.20;;;;;;;;;;5023418;28;20036;-67
2022/06/01 09:47:44;;;;;;;5.57;5.20;;;;;;;;;;5014525;28;20378;-67
2022/06/01 09:50:30;;;;;;;6.05;5.53;;;;;;;;;;5014698;28;20041;-67
2022/06/01 09:53:20;;;;;;;5.60;5.30;;;;;;;;;;5016315;28;20048;-67
2022/06/01 09:55:54;;;;;;;5.60;5.30;;;;;;;;;;5024962;28;20034;-67
2022/06/01 10:06:57;;;;;;;5.82;5.30;;;;;;;;;;5021347;28;20092;-68
2022/06/01 10:09:29;;;;;;;5.70;5.30;;;;;;;;;;5021963;28;20121;-68
2022/06/01 10:11:56;;;;;;;6.07;5.57;;;;;;;;;;5010731;28;20038;-67
2022/06/01 10:14:25;;;;;;;6.10;5.10;;;;;;;;;;5024598;28;20459;-67
2022/06/01 10:16:57;;;;;;;5.63;4.82;;;;;;;;;;5013717;28;20049;-67
2022/06/01 10:19:33;;;;;;;5.38;4.97;;;;;;;;;;5020187;28;20034;-67
2022/06/01 10:22:06;;;;;;;5.30;5.00;;;;;;;;;;5021344;28;20477;-67
2022/06/01 10:24:41;;;;;;;5.30;4.90;;;;;;;;;;5021200;28;20041;-67
2022/06/01 10:27:08;;;;;;;5.60;5.20;;;;;;;;;;5025082;28;20088;-67
2022/06/01 10:29:39;;;;;;;5.15;4.85;;;;;;;;;;5018411;28;20066;-68
2022/06/01 10:32:12;;;;;;;5.55;5.00;;;;;;;;;;5019222;28;20034;-67
2022/06/01 10:34:45;;;;;;;5.25;4.93;;;;;;;;;;5014661;28;20046;-66
2022/06/01 10:37:50;;;;;;;5.30;4.95;;;;;;;;;;5017290;28;20043;-67
2022/06/01 10:40:24;;;;;;;5.55;5.15;;;;;;;;;;5016901;28;20046;-67
2022/06/01 10:45:53;;;;;;;5.75;5.13;;;;;;;;;;5016397;28;20064;-67
2022/06/01 10:48:29;;;;;;;5.13;4.80;;;;;;;;;;5020675;28;20041;-67
2022/06/01 10:50:58;;;;;;;5.47;5.15;;;;;;;;;;5022292;28;20449;-67
2022/06/01 10:53:45;;;;;;;5.45;5.05;;;;;;;;;;5022395;28;20033;-69
2022/06/01 10:56:13;;;;;;;5.38;5.00;;;;;;;;;;5031685;28;20050;-66
2022/06/01 10:58:38;;;;;;;5.28;4.90;;;;;;;;;;5017606;28;20548;-67
2022/06/01 11:01:17;;;;;;;5.50;5.10;;;;;;;;;;5022472;28;20052;-67
2022/06/01 11:04:12;;;;;;;;;;;;;;;;;;5025143;28;20048;-67
2022/06/01 11:07:06;;;;;;;5.07;4.72;;;;;;;;;;4961550;28;19996;-66
2022/06/01 11:09:37;;;;;;;5.45;5.15;;;;;;;;;;4965752;28;20061;-67
2022/06/01 11:12:15;;;;;;;5.32;5.03;;;;;;;;;;4963167;28;20050;-67
2022/06/01 11:15:10;;;;;;;5.65;5.15;;;;;;;;;;4968787;28;20050;-66
2022/06/01 11:17:39;;;;;;;5.68;5.20;;;;;;;;;;4962255;28;20087;-67
2022/06/01 11:20:27;;;;;;;5.68;5.18;;;;;;;;;;4961185;28;20051;-67
2022/06/01 11:23:05;;;;;;;5.60;5.18;;;;;;;;;;4951222;28;20116;-68
2022/06/01 11:25:51;;;;;;;5.80;5.10;;;;;;;;;;4963129;28;20741;-67
2022/06/01 11:28:54;;;;;;;5.68;5.18;;;;;;;;;;4959116;28;20053;-67
2022/06/01 11:31:24;;;;;;;5.70;5.05;;;;;;;;;;4960202;28;20057;-66
2022/06/01 11:34:14;;;;;;;6.28;5.35;;;;;;;;;;4967170;28;20046;-67
2022/06/01 11:36:59;;;;;;;5.63;5.22;;;;;;;;;;4964562;28;20054;-67
2022/06/01 11:39:42;;;;;;;5.32;5.03;;;;;;;;;;4959278;28;20053;-67
2022/06/01 11:42:18;;;;;;;5.70;5.30;;;;;;;;;;4964001;28;20442;-66
2022/06/01 11:44:53;;;;;;;5.07;4.78;;;;;;;;;;5019195;28;20556;-66
2022/06/01 11:47:21;;;;;;;6.93;5.22;;;;;;;;;;5020916;28;20048;-67
2022/06/01 11:50:24;;;;;;;5.83;5.00;;;;;;;;;;5024505;22;20004;-63
2022/06/01 11:52:56;;;;;;;5.70;5.40;;;;;;;;;;4984686;28;20315;-62
2022/06/01 11:55:34;;;;;;;5.80;5.30;;;;;;;;;;5005822;28;20124;-63
2022/06/01 11:58:04;;;;;;;5.80;5.38;;;;;;;;;;5002434;28;20046;-62
2022/06/01 12:00:40;;;;;;;5.55;5.15;;;;;;;;;;4997144;28;20038;-63
2022/06/01 12:03:21;;;;;;;5.65;5.15;;;;;;;;;;4998327;28;20045;-63
2022/06/01 12:06:13;;;;;;;5.55;5.25;;;;;;;;;;5036323;22;20079;-67
2022/06/01 12:08:45;;;;;;;6.05;5.55;;;;;;;;;;5020633;28;20093;-67
2022/06/01 12:11:38;;;;;;;6.13;5.40;;;;;;;;;;5019739;28;20072;-67
2022/06/01 12:14:21;;;;;;;7.47;5.50;;;;;;;;;;5024151;28;20045;-67
2022/06/01 12:17:15;;;;;;;6.30;5.90;;;;;;;;;;5020658;28;20041;-67
2022/06/01 12:19:45;;;;;;;11.65;6.65;;;;;;;;;;5013560;28;20076;-68
2022/06/01 12:31:23;;;;;;;5.63;5.22;;;;;;;;;;5013891;28;20427;-67
2022/06/01 12:34:01;;;;;;;5.47;5.07;;;;;;;;;;5019460;28;20037;-68
2022/06/01 12:36:47;;;;;;;5.43;5.03;;;;;;;;;;5024618;28;20408;-67
2022/06/01 12:39:33;;;;;;;6.00;5.60;;;;;;;;;;5022095;28;20047;-67
2022/06/01 12:42:03;;;;;;;5.35;4.90;;;;;;;;;;5017424;28;20044;-68
2022/06/01 12:44:32;;;;;;;7.55;5.40;;;;;;;;;;5021189;28;20025;-67
2022/06/01 12:46:58;;;;;;;;;;;;;;;;;;5019263;28;20033;-67
2022/06/01 12:49:24;;;;;;;5.28;4.97;;;;;;;;;;5012935;28;19962;-67
2022/06/01 12:51:53;;;;;;;5.05;4.75;;;;;;;;;;5023231;28;20774;-67
2022/06/01 12:54:32;;;;;;;5.20;4.80;;;;;;;;;;5026577;28;20440;-68
2022/06/01 12:56:59;;;;;;;5.63;5.22;;;;;;;;;;5031084;28;20041;-66
2022/06/01 12:59:28;;;;;;;5.25;4.95;;;;;;;;;;5029537;28;20040;-67
2022/06/01 13:02:00;;;;;;;5.32;4.82;;;;;;;;;;5017981;28;20084;-67
2022/06/01 13:04:27;;;;;;;5.28;4.90;;;;;;;;;;5024790;28;20057;-67
2022/06/01 13:06:54;;;;;;;5.72;5.22;;;;;;;;;;5023547;28;20034;-67
2022/06/01 13:09:27;;;;;;;5.18;4.88;;;;;;;;;;5021772;28;20415;-68
2022/06/01 13:11:58;;;;;;;5.13;4.63;;;;;;;;;;5019512;28;20116;-67
2022/06/01 13:14:26;;;;;;;5.00;4.65;;;;;;;;;;5022545;28;20049;-67
2022/06/01 13:16:51;;;;;;;5.10;4.80;;;;;;;;;;5013431;28;20030;-67
2022/06/01 13:19:26;;;;;;;7.65;5.03;;;;;;;;;;5017843;28;20589;-67
2022/06/01 13:21:58;;;;;;;5.40;5.10;;;;;;;;;;5022243;28;20029;-67
2022/06/01 13:24:25;;;;;;;5.82;5.28;;;;;;;;;;5019597;28;20042;-67
2022/06/01 13:26:53;;;;;;;5.88;5.30;;;;;;;;;;5024276;28;20108;-66
2022/06/01 13:29:31;;;;;;;5.82;5.30;;;;;;;;;;5015731;28;20045;-68
2022/06/01 13:32:06;;;;;;;5.75;5.20;;;;;;;;;;5023602;28;20061;-67
2022/06/01 13:34:46;;;;;;;7.47;5.63;;;;;;;;;;5019937;28;20183;-67
2022/06/01 13:37:23;;;;;;;6.00;5.50;;;;;;;;;;5013393;28;20052;-67
2022/06/01 13:39:58;;;;;;;5.80;5.30;;;;;;;;;;5013921;28;20581;-67
2022/06/01 13:42:29;;;;;;;8.80;5.28;;;;;;;;;;5019792;28;20570;-67
2022/06/01 13:45:05;;;;;;;5.68;5.10;;;;;;;;;;5009513;28;20432;-66
2022/06/01 13:47:36;;;;;;;5.72;5.30;;;;;;;;;;5018142;28;20034;-67
2022/06/01 13:50:23;;;;;;;5.65;5.25;;;;;;;;;;5021501;28;20034;-68
2022/06/01 13:53:05;;;;;;;5.13;4.80;;;;;;;;;;5019568;28;20511;-67
2022/06/01 13:55:33;;;;;;;5.93;5.43;;;;;;;;;;5020629;28;20072;-68
2022/06/01 13:58:17;;;;;;;5.60;5.20;;;;;;;;;;5024154;28;20053;-67
2022/06/01 14:00:46;;;;;;;8.73;5.30;;;;;;;;;;5008622;28;20497;-68
2022/06/01 14:03:19;;;;;;;5.50;5.00;;;;;;;;;;5017608;28;20111;-67
2022/06/01 14:05:49;;;;;;;6.78;5.10;;;;;;;;;;5016960;28;20039;-67
2022/06/01 14:08:27;;;;;;;6.65;5.28;;;;;;;;;;5018460;28;20082;-66
2022/06/01 14:10:55;;;;;;;5.43;5.03;;;;;;;;;;5019905;28;20059;-67
2022/06/01 14:13:23;;;;;;;5.53;5.13;;;;;;;;;;5013178;28;20601;-68
2022/06/01 14:15:50;;;;;;;5.32;5.03;;;;;;;;;;5016781;28;20665;-68
2022/06/01 14:18:25;;;;;;;5.57;5.18;;;;;;;;;;5019950;28;20049;-67
2022/06/01 14:20:51;;;;;;;5.38;5.07;;;;;;;;;;5014701;28;20042;-66
2022/06/01 14:23:17;;;;;;;6.00;5.40;;;;;;;;;;5028455;28;20032;-67
2022/06/01 14:28:32;;;;;;;5.40;4.90;;;;;;;;;;5018194;28;20439;-66
2022/06/01 14:31:05;;;;;;;6.05;5.43;;;;;;;;;;5016479;28;20489;-67
2022/06/01 14:33:32;;;;;;;5.43;5.03;;;;;;;;;;5020268;28;20046;-68
2022/06/01 14:35:59;;;;;;;6.18;5.22;;;;;;;;;;5017239;28;20080;-66
2022/06/01 14:38:26;;;;;;;5.63;5.22;;;;;;;;;;5016246;28;20516;-67
2022/06/01 14:40:54;;;;;;;6.60;5.47;;;;;;;;;;5016984;28;20033;-67
2022/06/01 14:43:27;;;;;;;5.63;5.23;;;;;;;;;;5021001;28;20037;-67
2022/06/01 14:45:53;;;;;;;7.03;5.30;;;;;;;;;;5019419;28;20103;-66
2022/06/01 14:48:19;;;;;;;5.90;5.50;;;;;;;;;;5023225;28;20038;-67
2022/06/01 14:50:45;;;;;;;5.97;5.53;;;;;;;;;;5024106;28;20521;-66
2022/06/01 14:53:36;;;;;;;6.55;5.60;;;;;;;;;;5024043;28;20038;-66
2022/06/01 14:56:03;;;;;;;6.45;5.63;;;;;;;;;;5022953;28;20048;-67
2022/06/01 14:58:28;;;;;;;6.07;5.60;;;;;;;;;;5018881;28;20037;-68
2022/06/01 15:01:03;;;;;;;6.10;5.70;;;;;;;;;;5018219;28;20432;-67
2022/06/01 15:03:32;;;;;;;6.55;5.18;;;;;;;;;;5021261;28;20040;-67
2022/06/01 15:05:59;;;;;;;5.47;4.97;;;;;;;;;;5017361;28;20037;-66
2022/06/01 15:08:25;;;;;;;5.85;5.15;;;;;;;;;;5019349;28;20038;-68
2022/06/01 15:10:51;;;;;;;5.50;5.00;;;;;;;;;;5021794;28;20039;-67
2022/06/01 15:13:17;;;;;;;6.57;5.35;;;;;;;;;;5021041;28;20038;-67
2022/06/01 15:15:43;;;;;;;6.00;5.40;;;;;;;;;;5021414;28;20038;-67
2022/06/01 15:18:12;;;;;;;5.97;5.47;;;;;;;;;;5010811;28;20029;-67
2022/06/01 15:20:38;;;;;;;5.80;5.40;;;;;;;;;;5022129;28;20037;-66
2022/06/01 15:23:05;;;;;;;5.50;5.10;;;;;;;;;;5031188;28;20052;-66
2022/06/01 15:25:30;;;;;;;6.20;5.57;;;;;;;;;;5017837;28;20120;-68
2022/06/01 15:27:56;;;;;;;5.88;5.38;;;;;;;;;;5017562;28;20125;-66
2022/06/01 15:41:21;;;;;;;5.93;5.28;;;;;;;;;;5020430;28;20041;-67
2022/06/01 15:43:47;;;;;;;5.60;5.15;;;;;;;;;;5013381;28;20057;-66
2022/06/01 15:46:20;;;;;;;5.88;5.38;;;;;;;;;;5016377;28;20037;-66
2022/06/01 15:48:48;;;;;;;5.65;5.10;;;;;;;;;;5025678;28;20032;-66
2022/06/01 15:51:15;;;;;;;5.47;5.07;;;;;;;;;;5023567;28;20046;-67
2022/06/01 15:53:40;;;;;;;8.82;5.72;;;;;;;;;;5021207;28;20033;-67
2022/06/01 15:56:06;;;;;;;5.75;5.32;;;;;;;;;;5023534;28;20033;-68
2022/06/01 15:58:32;;;;;;;5.65;5.15;;;;;;;;;;5022724;28;20550;-68